Time;durP1;ratioP1;P1;durP2;ratioP2;P2;SDS_P1;SDS_P2;PMS_P1;PMS_P2;Temp;Humidity;BMP_temperature;BMP_pressure;BME280_temperature;BME280_humidity;BME280_pressure;Samples;Min_cycle;Max_cycle;Signal;HPM_P1;HPM_P2
2023/05/28 00:02:22;;;;;;;;;1.00;1.00;;;;;20.91;42.82;69083.47;6366682;22;45338;-80
2023/05/28 00:04:47;;;;;;;;;1.00;1.00;;;;;21.86;42.59;69167.28;6367635;22;45393;-81
2023/05/28 00:07:13;;;;;;;;;0.00;0.00;;;;;21.84;42.63;69156.81;6368599;22;45656;-80
2023/05/28 00:09:40;;;;;;;;;2.00;2.00;;;;;21.21;42.88;69188.50;6340802;22;45382;-79
2023/05/28 00:12:07;;;;;;;;;1.00;1.00;;;;;20.78;43.00;69084.69;6339617;22;47270;-82
2023/05/28 00:14:33;;;;;;;;;1.33;1.33;;;;;20.74;43.07;69139.06;6368006;22;45358;-82
2023/05/28 00:16:58;;;;;;;;;2.00;2.00;;;;;21.15;43.43;69167.91;6367941;22;45708;-84
2023/05/28 00:19:24;;;;;;;;;1.00;0.67;;;;;21.57;43.56;69149.50;6368928;22;45365;-85
2023/05/28 00:21:49;;;;;;;;;1.00;1.00;;;;;20.90;43.15;69017.75;6339972;22;47110;-85
2023/05/28 00:24:15;;;;;;;;;1.33;1.33;;;;;21.10;43.19;69110.28;6339451;22;45306;-85
2023/05/28 00:26:40;;;;;;;;;5.00;3.00;;;;;20.74;43.88;68961.69;6368809;22;45428;-85
2023/05/28 00:29:05;;;;;;;;;1.00;1.00;;;;;22.03;43.82;69186.34;6340025;22;45441;-85
2023/05/28 00:31:31;;;;;;;;;1.67;1.67;;;;;21.63;43.50;69102.22;6339782;22;47272;-85
2023/05/28 00:33:56;;;;;;;;;1.67;1.67;;;;;20.94;44.19;69124.06;6368168;22;45784;-85
2023/05/28 00:36:22;;;;;;;;;1.33;1.33;;;;;20.84;43.82;68943.44;6368399;22;45309;-85
2023/05/28 00:38:48;;;;;;;;;3.67;1.00;;;;;21.44;43.68;68999.50;6368795;22;45543;-84
2023/05/28 00:41:22;;;;;;;;;1.00;1.00;;;;;21.32;43.95;69171.41;6339398;22;47634;-84
2023/05/28 00:43:51;;;;;;;;;2.00;2.00;;;;;21.60;44.06;69039.44;6339058;22;45438;-83
2023/05/28 00:46:22;;;;;;;;;2.00;2.00;;;;;21.83;44.36;69056.03;6368045;22;45935;-84
2023/05/28 00:48:48;;;;;;;;;2.00;2.00;;;;;20.54;44.48;68868.06;6339610;22;45753;-84
2023/05/28 00:51:14;;;;;;;;;2.00;2.00;;;;;20.79;44.54;68973.03;6339124;22;47403;-84
2023/05/28 00:53:41;;;;;;;;;3.00;3.00;;;;;21.76;44.82;68998.66;6339178;22;45294;-84
2023/05/28 00:56:09;;;;;;;;;1.33;1.00;;;;;20.95;44.82;68894.06;6339754;22;45404;-89
2023/05/28 00:58:39;;;;;;;;;1.33;1.33;;;;;21.04;44.65;68980.63;6368389;22;45531;-89
2023/05/28 05:02:08;;;;;;;;;4.00;4.00;;;;;19.64;52.28;61150.09;6340222;22;45245;-84
2023/05/28 05:04:34;;;;;;;;;4.33;3.67;;;;;19.64;52.02;60903.78;6367465;22;45403;-84
2023/05/28 05:07:00;;;;;;;;;3.33;3.33;;;;;19.56;52.08;60764.16;6367931;22;45504;-85
2023/05/28 05:09:27;;;;;;;;;4.00;2.00;;;;;19.63;52.32;60458.31;6366838;22;46938;-84
2023/05/28 05:11:52;;;;;;;;;5.33;5.33;;;;;19.49;52.67;60349.97;6365808;22;45449;-85
2023/05/28 05:14:17;;;;;;;;;3.33;2.00;;;;;19.45;52.21;60241.94;6367307;22;45453;-86
2023/05/28 05:16:43;;;;;;;;;3.33;3.33;;;;;19.49;52.27;59977.97;6368373;22;45452;-84
2023/05/28 05:19:08;;;;;;;;;5.00;4.00;;;;;19.63;52.69;59719.53;6368310;22;47207;-85
2023/05/28 05:21:33;;;;;;;;;3.00;3.00;;;;;19.56;52.52;59535.66;6364197;22;45430;-86
2023/05/28 05:23:59;;;;;;;;;3.33;2.33;;;;;19.56;52.50;59474.63;6366827;22;45330;-83
2023/05/28 05:26:25;;;;;;;;;3.00;3.00;;;;;19.66;52.29;59163.25;6366472;22;45365;-84
2023/05/28 05:28:51;;;;;;;;;2.67;2.33;;;;;19.67;52.74;59009.06;6363202;22;47189;-83
2023/05/28 05:31:16;;;;;;;;;2.33;2.33;;;;;19.68;52.78;58876.31;6365716;22;45361;-83
2023/05/28 05:33:41;;;;;;;;;4.33;4.33;;;;;19.71;52.67;58996.59;6367026;22;45759;-83
2023/05/28 05:36:10;;;;;;;;;3.33;3.00;;;;;19.62;52.09;58803.25;6367443;22;45326;-84
2023/05/28 05:38:36;;;;;;;;;5.67;4.00;;;;;19.68;52.29;58785.31;6366440;22;46989;-84
2023/05/28 05:41:02;;;;;;;;;3.00;3.00;;;;;19.76;52.68;58563.31;6367215;22;45430;-83
2023/05/28 05:43:27;;;;;;;;;2.00;1.00;;;;;19.61;52.53;58527.13;6366988;22;45281;-83
2023/05/28 05:45:52;;;;;;;;;3.00;3.00;;;;;19.77;52.16;58649.97;6367951;22;45657;-83
2023/05/28 05:48:18;;;;;;;;;2.33;2.00;;;;;19.71;52.32;58483.28;6366495;22;46824;-83
2023/05/28 05:50:50;;;;;;;;;4.33;4.00;;;;;19.70;52.50;58372.06;6367146;22;45495;-83
2023/05/28 05:53:16;;;;;;;;;3.00;3.00;;;;;19.72;52.55;58213.53;6367638;22;45361;-87
2023/05/28 05:55:41;;;;;;;;;3.67;3.67;;;;;19.88;52.20;58033.81;6367590;22;45385;-87
2023/05/28 05:58:07;;;;;;;;;4.00;3.00;;;;;19.89;52.50;57954.53;6367415;22;46072;-87
2023/05/28 06:00:33;;;;;;;;;3.33;3.33;;;;;19.90;52.51;57838.28;6366288;22;45371;-85
2023/05/28 06:02:58;;;;;;;;;4.00;4.00;;;;;19.91;52.20;57806.69;6366803;22;45365;-85
2023/05/28 06:05:24;;;;;;;;;6.00;2.00;;;;;19.80;52.28;57911.19;6367908;22;45394;-85
2023/05/28 06:07:49;;;;;;;;;3.00;3.00;;;;;19.89;52.53;57553.09;6368582;22;45357;-87
2023/05/28 06:10:14;;;;;;;;;4.00;2.67;;;;;19.95;52.24;57524.31;6339793;22;45984;-91
2023/05/28 06:12:40;;;;;;;;;3.00;3.00;;;;;19.93;52.52;57538.88;6367891;22;45364;-89
2023/05/28 06:15:06;;;;;;;;;2.00;2.00;;;;;19.98;52.59;57578.66;6368874;22;45375;-87
2023/05/28 06:17:34;;;;;;;;;4.00;4.00;;;;;19.77;52.09;57413.66;6369349;22;45740;-89
2023/05/28 06:20:00;;;;;;;;;4.00;4.00;;;;;19.59;52.19;57489.78;6339526;22;45879;-88
2023/05/28 06:22:31;;;;;;;;;2.67;2.67;;;;;19.39;51.83;57360.69;6368127;22;45302;-89
2023/05/28 06:24:56;;;;;;;;;4.00;4.00;;;;;20.06;52.09;57299.25;6367893;22;45373;-90
2023/05/28 06:27:22;;;;;;;;;4.00;2.67;;;;;20.11;51.75;57507.66;6339202;22;48054;-91
2023/05/28 06:29:48;;;;;;;;;3.00;3.00;;;;;20.05;52.18;57576.63;6367592;22;45593;-89
2023/05/28 06:32:19;;;;;;;;;2.33;1.00;;;;;20.04;52.23;57562.75;6368168;22;45358;-92
2023/05/28 06:34:44;;;;;;;;;2.00;2.00;;;;;19.97;51.83;57604.44;6368140;22;45378;-88
2023/05/28 06:37:10;;;;;;;;;3.00;3.00;;;;;20.22;51.52;57706.59;6368101;22;46258;-92
2023/05/28 06:39:36;;;;;;;;;2.33;2.33;;;;;20.08;51.48;57700.59;6368179;22;45455;-94
2023/05/28 06:42:02;;;;;;;;;3.67;3.67;;;;;20.27;51.70;57729.84;6369631;22;45383;-94
2023/05/28 06:44:27;;;;;;;;;4.00;4.00;;;;;20.28;51.44;57679.97;6370287;22;45366;-94
2023/05/28 06:46:52;;;;;;;;;1.67;1.67;;;;;20.26;51.23;57844.00;6368338;22;46347;-93
2023/05/28 06:49:17;;;;;;;;;4.33;3.00;;;;;20.24;51.03;57887.50;6371458;22;45371;-95
2023/05/28 06:51:43;;;;;;;;;2.33;2.33;;;;;20.37;51.73;57822.41;6374186;22;45294;-96
2023/05/28 06:54:08;;;;;;;;;3.00;3.00;;;;;20.40;51.60;57747.75;6378899;22;45278;-94
2023/05/28 06:56:34;;;;;;;;;3.67;3.67;;;;;20.41;51.55;57856.38;6340047;22;47150;-90
2023/05/28 06:58:59;;;;;;;;;2.33;2.33;;;;;20.44;51.50;57775.88;6368225;22;45321;-90
2023/05/28 07:01:24;;;;;;;;;4.00;2.67;;;;;20.48;51.24;57715.09;6371512;22;45324;-94
2023/05/28 07:03:50;;;;;;;;;3.00;3.00;;;;;20.34;51.17;57527.47;6392273;22;45082;-96
2023/05/28 07:06:15;;;;;;;;;3.00;3.00;;;;;20.55;51.25;57349.72;6374959;22;45835;-96
2023/05/28 07:08:44;;;;;;;;;3.00;2.00;;;;;20.47;51.74;57208.34;6375445;22;45338;-94
2023/05/28 07:11:12;;;;;;;;;3.00;2.00;;;;;20.47;51.62;57267.25;6369357;22;45317;-95
2023/05/28 07:13:39;;;;;;;;;3.33;3.33;;;;;20.68;51.18;57274.28;6347270;22;45543;-96
2023/05/28 07:16:06;;;;;;;;;2.33;2.33;;;;;20.55;51.04;57363.63;6379610;22;45602;-96
2023/05/28 07:18:32;;;;;;;;;4.00;4.00;;;;;20.75;51.23;57548.72;6381857;22;45164;-96
2023/05/28 07:20:57;;;;;;;;;3.00;3.00;;;;;20.65;51.25;57525.84;6364850;22;45442;-81
2023/05/28 07:23:22;;;;;;;;;1.33;1.33;;;;;20.81;51.12;57453.38;6367999;22;45444;-79
2023/05/28 07:25:49;;;;;;;;;3.33;2.33;;;;;20.85;51.13;57448.81;6338338;22;46646;-79
2023/05/28 07:28:15;;;;;;;;;3.00;1.67;;;;;20.81;51.13;57353.72;6365269;22;45283;-78
2023/05/28 07:30:43;;;;;;;;;2.00;2.00;;;;;20.92;50.65;57417.78;6366910;22;45424;-79
2023/05/28 07:33:08;;;;;;;;;2.33;2.33;;;;;20.95;50.50;57399.81;6367099;22;45381;-78
2023/05/28 07:35:35;;;;;;;;;1.33;1.33;;;;;20.99;50.55;57253.69;6366060;22;47235;-79
2023/05/28 07:38:04;;;;;;;;;2.00;2.00;;;;;21.05;50.96;57189.97;6367575;22;45434;-79
2023/05/28 07:40:29;;;;;;;;;2.00;2.00;;;;;20.81;50.79;57101.81;6366765;22;45725;-80
2023/05/28 07:42:54;;;;;;;;;1.00;1.00;;;;;21.14;50.58;57136.22;6367315;22;45484;-80
2023/05/28 07:45:20;;;;;;;;;3.67;2.00;;;;;21.07;51.00;57038.63;6339571;22;45340;-80
2023/05/28 07:47:45;;;;;;;;;1.33;1.33;;;;;21.03;50.59;57153.13;6367158;22;45258;-80
2023/05/28 07:50:11;;;;;;;;;4.67;2.33;;;;;21.25;50.44;57110.09;6367137;22;45341;-81
2023/05/28 07:52:36;;;;;;;;;3.00;3.00;;;;;21.28;50.67;57091.63;6367033;22;45330;-80
2023/05/28 07:55:03;;;;;;;;;1.67;1.67;;;;;21.21;50.63;57137.81;6367055;22;45420;-79
2023/05/28 07:57:29;;;;;;;;;2.67;2.67;;;;;21.30;50.28;57208.44;6367774;22;45363;-81
2023/05/28 07:59:55;;;;;;;;;2.00;1.00;;;;;21.40;50.42;57210.34;6367272;22;45331;-81
2023/05/28 08:02:20;;;;;;;;;2.33;2.33;;;;;21.44;50.21;57307.72;6338113;22;45328;-81
2023/05/28 08:04:45;;;;;;;;;0.33;0.33;;;;;21.48;49.88;57325.09;6338629;22;47039;-82
2023/05/28 08:07:12;;;;;;;;;1.67;1.67;;;;;21.34;50.16;57258.00;6366984;22;45728;-80
2023/05/28 08:09:37;;;;;;;;;2.00;2.00;;;;;21.38;50.02;57240.03;6365038;22;45588;-77
2023/05/28 08:12:03;;;;;;;;;2.00;2.00;;;;;21.39;50.22;57305.91;6366356;22;45313;-78
2023/05/28 08:14:28;;;;;;;;;2.33;2.00;;;;;21.63;49.87;57305.16;6366185;22;47116;-78
2023/05/28 08:16:54;;;;;;;;;2.00;2.00;;;;;21.68;50.28;57267.19;6338754;22;45355;-77
2023/05/28 08:19:19;;;;;;;;;3.00;3.00;;;;;21.73;50.23;57215.31;6367262;22;45410;-78
2023/05/28 08:21:45;;;;;;;;;3.00;1.67;;;;;21.65;49.85;57338.84;6367255;22;45515;-78
2023/05/28 08:24:10;;;;;;;;;2.00;2.00;;;;;21.81;49.32;57424.06;6367174;22;46938;-79
2023/05/28 08:26:36;;;;;;;;;1.67;1.67;;;;;21.73;50.12;57518.06;6367224;22;45393;-79
2023/05/28 08:29:03;;;;;;;;;2.00;2.00;;;;;21.88;49.73;57409.56;6367072;22;45739;-79
2023/05/28 08:31:28;;;;;;;;;1.00;1.00;;;;;21.88;49.46;57366.59;6367544;22;45489;-80
2023/05/28 08:33:54;;;;;;;;;1.33;1.00;;;;;21.95;49.91;57195.91;6366969;22;46145;-80
2023/05/28 08:36:20;;;;;;;;;1.33;1.33;;;;;22.02;49.25;57197.97;6366216;22;45625;-80
2023/05/28 08:38:45;;;;;;;;;1.67;1.33;;;;;22.08;49.22;57211.97;6367320;22;45362;-81
2023/05/28 08:41:12;;;;;;;;;1.00;1.00;;;;;22.11;49.84;57125.84;6367148;22;45761;-80
2023/05/28 08:43:37;;;;;;;;;2.00;2.00;;;;;22.13;49.30;57117.59;6367118;22;46059;-80
2023/05/28 08:46:04;;;;;;;;;2.00;1.33;;;;;22.25;49.01;57158.53;6338459;22;45396;-80
2023/05/28 08:48:33;;;;;;;;;4.00;3.00;;;;;22.18;49.58;57132.28;6367459;22;45322;-81
2023/05/28 08:50:59;;;;;;;;;3.00;3.00;;;;;22.20;49.16;57145.50;6367410;22;45337;-80
2023/05/28 08:53:29;;;;;;;;;4.00;2.00;;;;;22.42;49.46;57113.13;6366989;22;45349;-80
2023/05/28 08:55:55;;;;;;;;;3.00;2.33;;;;;22.48;48.72;57145.94;6366931;22;45406;-81
2023/05/28 08:58:21;;;;;;;;;3.00;3.00;;;;;22.56;48.60;57191.00;6367582;22;45336;-80
2023/05/28 09:00:49;;;;;;;;;2.00;2.00;;;;;22.64;49.04;57311.81;6338201;22;45400;-80
2023/05/28 09:03:15;;;;;;;;;2.00;2.00;;;;;22.66;48.78;56967.09;6366636;22;45297;-80
2023/05/28 09:05:40;;;;;;;;;3.00;1.33;;;;;23.32;48.21;56422.41;6367076;22;45366;-80
2023/05/28 09:08:12;;;;;;;;;2.00;2.00;;;;;24.01;47.50;55279.56;6367167;22;45539;-80
2023/05/28 09:10:38;;;;;;;;;2.00;2.00;;;;;24.78;46.71;53934.47;6337899;22;45466;-80
2023/05/28 09:13:07;;;;;;;;;2.00;2.00;;;;;25.79;46.72;53074.25;6366423;22;46509;-80
2023/05/28 09:15:37;;;;;;;;;2.33;2.33;;;;;26.60;45.40;53031.00;6337784;22;46067;-82
2023/05/28 09:18:05;;;;;;;;;3.67;2.67;;;;;27.62;44.94;52605.88;6366321;22;45472;-79
2023/05/28 09:20:31;;;;;;;;;2.00;2.00;;;;;28.37;43.99;53480.44;6366707;22;45663;-79
2023/05/28 09:23:06;;;;;;;;;2.00;2.00;;;;;28.97;43.36;55300.72;6366218;22;45897;-79
2023/05/28 09:25:36;;;;;;;;;3.00;3.00;;;;;29.89;41.38;57647.91;6365094;22;45380;-80
2023/05/28 09:28:02;;;;;;;;;2.33;2.33;;;;;30.49;41.00;59576.72;6365138;22;45397;-81
2023/05/28 09:30:29;;;;;;;;;2.00;2.00;;;;;31.13;40.58;61102.03;6367442;22;45850;-79
2023/05/28 09:33:02;;;;;;;;;2.00;2.00;;;;;31.61;39.63;62299.28;6366559;22;45580;-77
2023/05/28 09:35:31;;;;;;;;;2.00;2.00;;;;;32.23;39.49;63686.59;6365948;22;45386;-77
2023/05/28 09:38:10;;;;;;;;;1.33;1.33;;;;;32.75;38.48;65320.84;6366206;22;45584;-80
2023/05/28 09:40:40;;;;;;;;;3.00;3.00;;;;;33.25;37.45;66941.84;6366733;22;45652;-80
2023/05/28 09:43:07;;;;;;;;;2.67;2.33;;;;;33.67;37.09;68499.59;6365948;22;47266;-79
2023/05/28 09:45:33;;;;;;;;;3.67;2.33;;;;;34.05;36.20;69921.84;6365974;22;45492;-80
2023/05/28 09:47:59;;;;;;;;;5.00;3.33;;;;;34.42;36.11;70648.16;6366550;22;45354;-79
2023/05/28 09:50:24;;;;;;;;;2.00;2.00;;;;;34.79;35.03;71310.63;6367411;22;45298;-79
2023/05/28 09:52:55;;;;;;;;;4.33;3.00;;;;;35.16;34.81;72192.81;6367286;22;45732;-79
2023/05/28 09:55:24;;;;;;;;;2.00;2.00;;;;;35.50;34.39;72668.94;6339518;22;45356;-79
2023/05/28 09:57:59;;;;;;;;;3.00;3.00;;;;;35.80;33.70;73380.31;6368109;22;45429;-79
2023/05/28 10:00:31;;;;;;;;;3.00;3.00;;;;;36.02;33.01;73859.09;6368432;22;45438;-79
2023/05/28 10:03:10;;;;;;;;;2.00;2.00;;;;;36.37;32.79;74157.63;6367619;22;46702;-79
2023/05/28 10:05:37;;;;;;;;;2.00;2.00;;;;;36.52;32.61;74571.59;6368169;22;45330;-79
2023/05/28 10:08:04;;;;;;;;;2.67;2.00;;;;;36.91;32.08;74765.38;6368194;22;45386;-79
2023/05/28 10:10:31;;;;;;;;;2.00;2.00;;;;;37.12;31.71;74971.53;6368098;22;45372;-79
2023/05/28 10:12:57;;;;;;;;;2.00;2.00;;;;;37.31;31.45;74964.00;6338492;22;45405;-79
2023/05/28 10:15:23;;;;;;;;;2.00;2.00;;;;;37.44;31.53;75162.25;6339342;22;45578;-79
2023/05/28 10:17:49;;;;;;;;;2.67;1.67;;;;;37.68;31.20;75270.22;6313207;22;46050;-79
2023/05/28 10:20:15;;;;;;;;;2.00;2.00;;;;;37.79;30.75;75295.31;6368308;22;45385;-79
2023/05/28 10:22:41;;;;;;;;;3.33;2.00;;;;;38.05;30.67;75298.91;6367266;22;46012;-81
2023/05/28 10:25:10;;;;;;;;;2.67;2.00;;;;;38.22;29.84;75118.59;6366930;22;45400;-81
2023/05/28 10:27:42;;;;;;;;;1.00;1.00;;;;;38.38;29.57;75033.16;6367938;22;45356;-81
2023/05/28 10:30:09;;;;;;;;;2.67;2.67;;;;;38.55;29.48;74894.22;6367546;22;45750;-80
2023/05/28 10:32:41;;;;;;;;;0.33;0.33;;;;;38.58;28.63;74698.09;6338522;22;46041;-80
2023/05/28 10:35:09;;;;;;;;;1.00;0.67;;;;;38.75;29.17;74838.00;6367726;22;45410;-80
2023/05/28 10:37:35;;;;;;;;;2.67;2.67;;;;;38.98;28.75;74464.91;6339237;22;45545;-80
2023/05/28 10:40:01;;;;;;;;;1.67;1.67;;;;;39.09;27.97;74159.63;6340373;22;45479;-80
2023/05/28 10:42:26;;;;;;;;;2.33;0.33;;;;;39.07;27.82;73910.63;6366344;22;46265;-80
2023/05/28 10:45:06;;;;;;;;;2.00;2.00;;;;;39.27;26.96;73428.72;6367586;22;45360;-80
2023/05/28 10:47:34;;;;;;;;;2.00;2.00;;;;;39.32;27.30;73554.03;6366809;22;45360;-80
2023/05/28 10:50:09;;;;;;;;;3.00;3.00;;;;;39.43;26.07;72952.06;6366305;22;45325;-80
2023/05/28 10:52:35;;;;;;;;;3.00;1.00;;;;;39.49;26.87;73161.13;6366767;22;47044;-79
2023/05/28 10:55:07;;;;;;;;;1.67;1.67;;;;;39.53;26.64;72936.09;6366535;22;45316;-80
2023/05/28 10:57:43;;;;;;;;;1.00;1.00;;;;;39.59;26.46;72858.19;6339010;22;45408;-80
2023/05/28 11:00:13;;;;;;;;;1.00;1.00;;;;;39.67;26.22;72792.63;6367321;22;45419;-80
2023/05/28 11:02:40;;;;;;;;;0.33;0.33;;;;;39.74;26.33;72676.53;6366824;22;46112;-80
2023/05/28 11:05:06;;;;;;;;;1.33;1.33;;;;;39.73;26.40;72642.03;6366378;22;45417;-80
2023/05/28 11:07:35;;;;;;;;;2.00;2.00;;;;;39.75;25.51;72189.41;6366397;22;45316;-80
2023/05/28 11:10:02;;;;;;;;;2.00;2.00;;;;;39.72;25.66;71972.38;6367369;22;45578;-81
2023/05/28 11:12:29;;;;;;;;;2.33;2.33;;;;;39.52;26.13;72051.69;6366411;22;46374;-81
2023/05/28 11:14:55;;;;;;;;;2.00;2.00;;;;;39.51;25.44;72002.78;6367608;22;45585;-80
2023/05/28 11:17:21;;;;;;;;;2.00;1.67;;;;;39.66;25.72;71960.13;6336955;22;45826;-80
2023/05/28 11:19:48;;;;;;;;;0.33;0.33;;;;;39.62;25.73;71730.84;6366567;22;45449;-80
2023/05/28 11:22:15;;;;;;;;;1.67;0.00;;;;;39.56;25.25;71529.66;6367051;22;47089;-80
2023/05/28 11:25:04;;;;;;;;;1.00;1.00;;;;;39.63;25.62;71651.72;6367158;22;45658;-80
2023/05/28 11:27:32;;;;;;;;;2.33;1.00;;;;;39.64;25.39;71376.53;6338383;22;45452;-80
2023/05/28 11:30:00;;;;;;;;;2.00;2.00;;;;;39.61;25.08;71430.44;6339142;22;45830;-80
2023/05/28 11:32:27;;;;;;;;;0.67;0.67;;;;;39.55;24.95;71035.44;6366390;22;46898;-81
2023/05/28 11:34:54;;;;;;;;;1.67;1.67;;;;;39.48;24.52;70975.00;6366498;22;45360;-81
2023/05/28 11:37:27;;;;;;;;;4.00;2.33;;;;;39.38;24.45;70755.31;6365964;22;45454;-81
2023/05/28 11:39:54;;;;;;;;;0.00;0.00;;;;;39.24;24.31;70741.88;6367461;22;45299;-81
2023/05/28 11:42:21;;;;;;;;;0.33;0.33;;;;;39.04;24.17;70649.31;6367501;22;46195;-81
2023/05/28 11:44:47;;;;;;;;;1.33;1.33;;;;;38.86;24.26;70431.94;6367782;22;45365;-79
2023/05/28 11:47:13;;;;;;;;;1.33;1.33;;;;;38.50;23.88;70395.66;6367975;22;45379;-79
2023/05/28 11:49:40;;;;;;;;;2.67;1.67;;;;;38.26;23.97;70395.22;6368056;22;45410;-79
2023/05/28 11:52:09;;;;;;;;;3.00;3.00;;;;;37.86;24.08;70314.88;6367483;22;46437;-78
2023/05/28 11:54:35;;;;;;;;;1.00;1.00;;;;;37.44;25.06;70312.81;6367652;22;45395;-78
2023/05/28 11:57:03;;;;;;;;;2.00;2.00;;;;;37.05;25.19;70300.53;6339317;22;45390;-78
2023/05/28 11:59:29;;;;;;;;;2.00;2.00;;;;;36.71;25.07;70352.09;6340072;22;45461;-79
2023/05/28 12:02:09;;;;;;;;;3.33;2.00;;;;;36.22;25.10;70278.78;6339710;22;46038;-80
2023/05/28 12:04:34;;;;;;;;;2.33;2.33;;;;;36.01;25.46;70276.31;6339707;22;45620;-81
2023/05/28 12:07:00;;;;;;;;;1.00;1.00;;;;;35.67;25.82;70222.50;6365756;22;45735;-80
2023/05/28 12:09:25;;;;;;;;;2.00;2.00;;;;;35.45;26.33;70243.56;6337366;22;45342;-79
2023/05/28 12:12:11;;;;;;;;;1.00;1.00;;;;;35.04;25.71;70275.50;6366147;22;45866;-81
2023/05/28 12:14:37;;;;;;;;;3.67;2.00;;;;;34.86;26.07;70265.56;6337010;22;45688;-81
2023/05/28 12:17:10;;;;;;;;;1.33;1.33;;;;;34.72;26.15;70279.03;6365865;22;45417;-81
2023/05/28 12:19:36;;;;;;;;;2.33;2.33;;;;;34.54;26.86;70302.66;6366539;22;45369;-82
2023/05/28 12:22:04;;;;;;;;;2.00;2.00;;;;;34.26;26.61;70325.25;6366898;22;46293;-81
2023/05/28 12:24:30;;;;;;;;;3.00;3.00;;;;;34.19;27.20;70349.22;6366229;22;45260;-81
2023/05/28 12:26:55;;;;;;;;;3.00;3.00;;;;;33.99;27.10;70266.03;6366914;22;45397;-81
2023/05/28 12:29:21;;;;;;;;;2.00;2.00;;;;;33.75;26.99;70355.91;6366112;22;45335;-81
2023/05/28 12:31:46;;;;;;;;;3.00;2.00;;;;;33.72;27.23;70324.88;6338057;22;45957;-80
2023/05/28 12:34:11;;;;;;;;;4.00;2.33;;;;;33.59;27.42;70320.88;6366289;22;45638;-80
2023/05/28 12:36:37;;;;;;;;;2.00;2.00;;;;;33.45;27.39;70267.81;6366070;22;45291;-80
2023/05/28 12:39:04;;;;;;;;;0.00;0.00;;;;;33.20;27.10;70261.63;6365948;22;45361;-80
2023/05/28 12:41:30;;;;;;;;;2.00;2.00;;;;;33.23;27.45;70272.84;6366329;22;45443;-80
2023/05/28 12:43:55;;;;;;;;;1.00;1.00;;;;;33.13;28.01;70329.38;6367113;22;45384;-80
2023/05/28 12:46:21;;;;;;;;;2.00;2.00;;;;;32.93;27.26;70306.59;6367785;22;45624;-80
2023/05/28 12:48:46;;;;;;;;;1.00;1.00;;;;;32.93;27.99;70273.72;6367964;22;45500;-80
2023/05/28 12:51:11;;;;;;;;;0.67;0.67;;;;;32.83;27.92;70368.00;6366692;22;45948;-80
2023/05/28 12:53:37;;;;;;;;;2.00;2.00;;;;;32.69;28.28;70343.59;6362917;22;45285;-83
2023/05/28 12:56:03;;;;;;;;;3.00;1.33;;;;;32.49;28.20;70440.66;6337915;22;45425;-83
2023/05/28 12:58:28;;;;;;;;;1.00;1.00;;;;;32.57;28.54;70310.63;6368923;22;45486;-89
2023/05/28 13:00:53;;;;;;;;;2.00;2.00;;;;;32.38;27.90;70351.38;6370127;22;45678;-86
2023/05/28 13:03:19;;;;;;;;;2.00;2.00;;;;;32.40;28.05;70340.09;6361445;22;45802;-85
2023/05/28 13:05:46;;;;;;;;;3.33;1.67;;;;;32.31;28.00;70297.06;6312484;22;45365;-87
2023/05/28 13:08:11;;;;;;;;;1.67;1.67;;;;;32.22;27.55;70288.38;6366987;22;45388;-86
2023/05/28 13:10:36;;;;;;;;;1.00;1.00;;;;;32.10;28.11;70302.56;6335900;22;45314;-82
2023/05/28 13:13:02;;;;;;;;;2.00;2.00;;;;;32.02;28.15;70306.66;6366239;22;45302;-84
2023/05/28 13:15:27;;;;;;;;;2.33;1.33;;;;;32.01;28.26;70282.94;6337784;22;45389;-82
2023/05/28 13:17:52;;;;;;;;;2.00;2.00;;;;;31.94;28.15;70311.31;6366947;22;45327;-83
2023/05/28 13:20:18;;;;;;;;;1.00;1.00;;;;;31.82;27.98;70296.31;6366632;22;46209;-83
2023/05/28 13:22:43;;;;;;;;;1.00;1.00;;;;;31.83;28.42;70294.78;6338207;22;45739;-83
2023/05/28 13:25:09;;;;;;;;;2.00;2.00;;;;;31.78;28.47;70237.41;6367724;22;45286;-82
2023/05/28 13:27:35;;;;;;;;;0.00;0.00;;;;;31.60;28.20;70241.03;6368475;22;45866;-81
2023/05/28 13:30:01;;;;;;;;;2.00;2.00;;;;;31.64;28.12;70191.13;6368251;22;46323;-83
2023/05/28 13:32:27;;;;;;;;;2.67;2.67;;;;;31.57;28.06;70253.25;6339603;22;45365;-85
2023/05/28 13:34:55;;;;;;;;;1.67;1.67;;;;;31.27;28.04;70150.13;6368523;22;46007;-89
2023/05/28 13:37:27;;;;;;;;;3.00;1.67;;;;;30.77;28.54;70118.75;6337752;22;46179;-86
2023/05/28 13:39:53;;;;;;;;;4.00;1.25;;;;;31.29;28.81;70306.19;6366920;22;46456;-82
2023/05/28 13:42:21;;;;;;;;;2.00;2.00;;;;;31.26;29.56;70354.53;6339035;22;45731;-83
2023/05/28 13:44:50;;;;;;;;;3.00;1.33;;;;;30.87;29.59;70308.28;6368266;22;45424;-82
2023/05/28 13:47:16;;;;;;;;;3.00;3.00;;;;;31.01;29.12;70297.78;6339319;22;45510;-79
2023/05/28 13:49:41;;;;;;;;;3.00;3.00;;;;;30.83;30.57;70377.81;6366646;22;46440;-80
2023/05/28 13:52:07;;;;;;;;;1.67;1.67;;;;;30.49;30.79;70348.47;6338171;22;45350;-78
2023/05/28 13:54:32;;;;;;;;;2.00;2.00;;;;;30.20;31.36;70428.81;6368181;22;45404;-79
2023/05/28 13:56:58;;;;;;;;;4.33;3.00;;;;;30.06;31.80;70413.19;6369283;22;45473;-79
2023/05/28 13:59:23;;;;;;;;;3.00;3.00;;;;;29.85;32.64;70480.63;6368101;22;45446;-78
2023/05/28 14:01:49;;;;;;;;;2.00;2.00;;;;;29.60;32.60;70410.81;6339737;22;45388;-78
2023/05/28 14:04:15;;;;;;;;;4.00;4.00;;;;;29.34;33.05;70436.75;6340216;22;45463;-79
2023/05/28 14:06:40;;;;;;;;;2.00;2.00;;;;;28.97;33.44;70415.16;6340614;22;45334;-79
2023/05/28 14:09:05;;;;;;;;;2.00;2.00;;;;;28.95;33.70;70432.41;6368630;22;46146;-79
2023/05/28 14:11:31;;;;;;;;;3.67;3.67;;;;;28.68;34.60;70473.38;6340044;22;46074;-78
2023/05/28 14:13:56;;;;;;;;;5.67;4.67;;;;;28.44;34.44;70461.97;6339891;22;45317;-78
2023/05/28 14:16:22;;;;;;;;;4.00;3.67;;;;;28.27;34.60;70463.22;6369049;22;45265;-78
2023/05/28 14:18:47;;;;;;;;;2.00;2.00;;;;;28.29;34.44;70364.97;6365745;22;46787;-78
2023/05/28 14:21:12;;;;;;;;;4.00;4.00;;;;;28.04;35.22;70412.22;6338068;22;45808;-79
2023/05/28 14:23:38;;;;;;;;;3.33;3.33;;;;;27.88;35.31;70369.06;6365168;22;45530;-80
2023/05/28 14:26:03;;;;;;;;;3.33;3.33;;;;;27.78;35.63;70463.03;6338612;22;45362;-78
2023/05/28 14:28:29;;;;;;;;;5.00;2.33;;;;;27.60;36.00;70384.84;6338700;22;47244;-78
2023/05/28 14:30:54;;;;;;;;;3.00;3.00;;;;;27.63;35.77;70393.91;6367135;22;45608;-78
2023/05/28 14:33:20;;;;;;;;;5.00;4.33;;;;;27.65;36.21;70366.41;6338494;22;45378;-78
2023/05/28 14:35:46;;;;;;;;;4.33;3.00;;;;;27.55;36.06;70393.00;6368192;22;45299;-79
2023/05/28 14:38:11;;;;;;;;;6.33;3.67;;;;;27.15;36.25;70324.22;6367736;22;45479;-78
2023/05/28 14:40:37;;;;;;;;;3.00;3.00;;;;;27.30;36.95;70396.06;6367651;22;45715;-77
2023/05/28 14:43:02;;;;;;;;;2.00;2.00;;;;;27.27;36.86;70299.50;6367326;22;45396;-78
2023/05/28 14:45:27;;;;;;;;;3.00;1.67;;;;;27.19;36.90;70393.06;6367444;22;45476;-79
2023/05/28 14:47:53;;;;;;;;;1.67;1.67;;;;;27.18;36.73;70354.41;6338689;22;46066;-78
2023/05/28 14:50:18;;;;;;;;;4.00;4.00;;;;;27.18;37.47;70378.84;6368044;22;45682;-79
2023/05/28 14:52:44;;;;;;;;;3.00;3.00;;;;;27.05;37.31;70330.59;6339246;22;45423;-79
2023/05/28 14:55:09;;;;;;;;;2.67;2.67;;;;;27.14;37.06;70333.31;6368137;22;45456;-80
2023/05/28 14:57:36;;;;;;;;;5.00;5.00;;;;;27.10;37.73;70377.97;6367850;22;45383;-81
2023/05/28 15:00:06;;;;;;;;;3.33;2.67;;;;;26.90;37.39;70361.97;6365230;22;45373;-79
2023/05/28 15:02:33;;;;;;;;;4.00;4.00;;;;;26.79;37.75;70330.34;6367006;22;45374;-81
2023/05/28 15:04:59;;;;;;;;;2.00;2.00;;;;;26.81;37.53;70332.75;6367737;22;45479;-80
2023/05/28 15:07:24;;;;;;;;;4.00;4.00;;;;;26.69;38.10;70296.56;6338373;22;46319;-80
2023/05/28 15:09:49;;;;;;;;;5.67;4.33;;;;;26.81;38.09;70321.28;6365934;22;49493;-80
2023/05/28 15:12:15;;;;;;;;;2.67;2.67;;;;;26.53;38.49;70299.59;6367807;22;45365;-81
2023/05/28 15:14:41;;;;;;;;;2.33;1.33;;;;;26.77;38.01;70283.91;6367126;22;45489;-80
2023/05/28 15:17:06;;;;;;;;;3.67;2.00;;;;;26.59;37.92;70317.69;6367643;22;46021;-80
2023/05/28 15:19:31;;;;;;;;;1.33;1.33;;;;;26.79;37.67;70256.47;6337687;22;45546;-80
2023/05/28 15:21:57;;;;;;;;;2.00;1.00;;;;;26.83;37.82;70258.53;6366212;22;45582;-81
2023/05/28 15:24:22;;;;;;;;;3.33;2.00;;;;;26.67;37.84;70256.78;6367174;22;45341;-80
2023/05/28 15:26:48;;;;;;;;;1.67;1.67;;;;;26.52;38.45;70271.25;6335509;22;47742;-84
2023/05/28 15:29:14;;;;;;;;;2.00;2.00;;;;;26.69;38.40;70313.47;6336878;22;45619;-84
2023/05/28 15:34:33;;;;;;;;;1.00;1.00;;;;;26.07;38.52;70178.19;6360355;22;45340;-83
2023/05/28 15:36:59;;;;;;;;;1.00;1.00;;;;;26.63;37.93;70260.09;6366956;22;45411;-83